sensor_id;sensor_type;location;lat;lon;timestamp;pressure;altitude;pressure_sealevel;temperature;humidity
81999;BME280;71598;46.516;-122.928;2024-02-16T00:01:48;100237.98;;;18.61;19.00
81999;BME280;71598;46.516;-122.928;2024-02-16T00:04:13;100240.17;;;18.95;19.00
81999;BME280;71598;46.516;-122.928;2024-02-16T00:06:38;100238.44;;;18.91;19.25
81999;BME280;71598;46.516;-122.928;2024-02-16T00:09:04;100237.31;;;18.41;19.33
81999;BME280;71598;46.516;-122.928;2024-02-16T00:11:29;100234.28;;;18.69;19.29
81999;BME280;71598;46.516;-122.928;2024-02-16T00:13:54;100232.33;;;18.80;19.14
81999;BME280;71598;46.516;-122.928;2024-02-16T00:16:20;100232.56;;;18.67;19.18
81999;BME280;71598;46.516;-122.928;2024-02-16T00:18:45;100230.28;;;18.66;19.15
81999;BME280;71598;46.516;-122.928;2024-02-16T00:21:10;100232.04;;;18.69;19.10
81999;BME280;71598;46.516;-122.928;2024-02-16T00:23:36;100237.08;;;18.75;19.08
81999;BME280;71598;46.516;-122.928;2024-02-16T00:26:02;100241.16;;;19.15;19.14
81999;BME280;71598;46.516;-122.928;2024-02-16T00:28:27;100242.67;;;18.73;19.12
81999;BME280;71598;46.516;-122.928;2024-02-16T00:30:53;100241.60;;;18.91;19.08
81999;BME280;71598;46.516;-122.928;2024-02-16T00:33:19;100242.27;;;18.80;19.08
81999;BME280;71598;46.516;-122.928;2024-02-16T00:35:43;100246.25;;;18.83;19.07
81999;BME280;71598;46.516;-122.928;2024-02-16T00:38:09;100245.05;;;18.89;19.03
81999;BME280;71598;46.516;-122.928;2024-02-16T00:40:35;100246.91;;;18.65;19.08
81999;BME280;71598;46.516;-122.928;2024-02-16T00:43:00;100248.22;;;18.72;19.06
81999;BME280;71598;46.516;-122.928;2024-02-16T00:45:25;100251.85;;;18.66;19.12
81999;BME280;71598;46.516;-122.928;2024-02-16T00:47:51;100252.01;;;18.71;19.12
81999;BME280;71598;46.516;-122.928;2024-02-16T00:50:16;100255.68;;;18.77;19.08
81999;BME280;71598;46.516;-122.928;2024-02-16T00:52:41;100262.64;;;18.59;19.07
81999;BME280;71598;46.516;-122.928;2024-02-16T00:55:07;100264.93;;;18.64;19.11
81999;BME280;71598;46.516;-122.928;2024-02-16T00:57:32;100266.14;;;18.75;19.12
81999;BME280;71598;46.516;-122.928;2024-02-16T00:59:58;100269.38;;;18.57;19.16
81999;BME280;71598;46.516;-122.928;2024-02-16T01:02:24;100272.80;;;18.67;19.13
81999;BME280;71598;46.516;-122.928;2024-02-16T01:04:49;100279.57;;;18.72;19.17
81999;BME280;71598;46.516;-122.928;2024-02-16T01:07:14;100284.07;;;18.68;19.13
81999;BME280;71598;46.516;-122.928;2024-02-16T01:09:40;100285.22;;;19.22;19.16
81999;BME280;71598;46.516;-122.928;2024-02-16T01:12:05;100290.13;;;18.76;19.17
81999;BME280;71598;46.516;-122.928;2024-02-16T01:14:30;100295.33;;;18.70;19.16
81999;BME280;71598;46.516;-122.928;2024-02-16T01:16:56;100301.88;;;18.70;19.18
81999;BME280;71598;46.516;-122.928;2024-02-16T01:19:21;100308.41;;;18.70;19.14
81999;BME280;71598;46.516;-122.928;2024-02-16T01:21:46;100313.44;;;18.65;19.16
81999;BME280;71598;46.516;-122.928;2024-02-16T01:24:11;100323.80;;;18.90;19.15
81999;BME280;71598;46.516;-122.928;2024-02-16T01:26:37;100328.32;;;18.64;19.16
81999;BME280;71598;46.516;-122.928;2024-02-16T01:29:03;100328.41;;;18.58;19.09
81999;BME280;71598;46.516;-122.928;2024-02-16T01:31:28;100325.04;;;18.69;19.11
81999;BME280;71598;46.516;-122.928;2024-02-16T01:33:58;100323.99;;;18.71;19.11
81999;BME280;71598;46.516;-122.928;2024-02-16T01:36:19;100324.26;;;18.59;19.16
81999;BME280;71598;46.516;-122.928;2024-02-16T01:38:45;100322.35;;;18.81;19.13
81999;BME280;71598;46.516;-122.928;2024-02-16T01:41:11;100321.17;;;18.59;19.14
81999;BME280;71598;46.516;-122.928;2024-02-16T01:43:36;100323.11;;;18.58;19.14
81999;BME280;71598;46.516;-122.928;2024-02-16T01:46:01;100320.37;;;18.64;19.18
81999;BME280;71598;46.516;-122.928;2024-02-16T01:48:26;100319.77;;;18.47;19.11
81999;BME280;71598;46.516;-122.928;2024-02-16T01:50:52;100320.09;;;18.69;19.18
81999;BME280;71598;46.516;-122.928;2024-02-16T01:53:18;100321.38;;;18.71;19.16
81999;BME280;71598;46.516;-122.928;2024-02-16T01:55:43;100324.36;;;18.75;19.15
81999;BME280;71598;46.516;-122.928;2024-02-16T01:58:08;100325.31;;;18.82;19.24
81999;BME280;71598;46.516;-122.928;2024-02-16T02:00:34;100324.22;;;18.99;19.15
81999;BME280;71598;46.516;-122.928;2024-02-16T02:03:00;100330.91;;;18.86;19.14
81999;BME280;71598;46.516;-122.928;2024-02-16T02:05:25;100334.11;;;18.46;19.22
81999;BME280;71598;46.516;-122.928;2024-02-16T02:07:50;100337.11;;;18.76;19.12
81999;BME280;71598;46.516;-122.928;2024-02-16T02:10:16;100338.85;;;18.94;19.19
81999;BME280;71598;46.516;-122.928;2024-02-16T02:12:42;100340.40;;;18.53;19.23
81999;BME280;71598;46.516;-122.928;2024-02-16T02:15:07;100345.26;;;18.65;19.16
81999;BME280;71598;46.516;-122.928;2024-02-16T02:17:32;100345.07;;;18.52;19.13
81999;BME280;71598;46.516;-122.928;2024-02-16T02:19:58;100348.26;;;18.71;19.14
81999;BME280;71598;46.516;-122.928;2024-02-16T02:22:24;100352.40;;;18.62;19.09
81999;BME280;71598;46.516;-122.928;2024-02-16T02:24:49;100353.12;;;18.72;19.13
81999;BME280;71598;46.516;-122.928;2024-02-16T02:27:16;100355.99;;;18.68;19.12
81999;BME280;71598;46.516;-122.928;2024-02-16T02:29:41;100358.22;;;18.93;19.10
81999;BME280;71598;46.516;-122.928;2024-02-16T02:32:06;100355.96;;;18.67;19.07
81999;BME280;71598;46.516;-122.928;2024-02-16T02:34:31;100354.70;;;19.10;18.90
81999;BME280;71598;46.516;-122.928;2024-02-16T02:36:57;100362.83;;;18.57;19.02
81999;BME280;71598;46.516;-122.928;2024-02-16T02:39:23;100371.22;;;18.70;19.03
81999;BME280;71598;46.516;-122.928;2024-02-16T02:41:48;100374.94;;;18.52;19.07
81999;BME280;71598;46.516;-122.928;2024-02-16T02:44:15;100373.51;;;18.80;19.06
81999;BME280;71598;46.516;-122.928;2024-02-16T02:46:40;100373.70;;;18.63;19.16
81999;BME280;71598;46.516;-122.928;2024-02-16T02:49:04;100380.69;;;18.85;19.10
81999;BME280;71598;46.516;-122.928;2024-02-16T02:51:30;100385.36;;;18.61;19.17
81999;BME280;71598;46.516;-122.928;2024-02-16T02:53:55;100389.80;;;18.62;19.19
81999;BME280;71598;46.516;-122.928;2024-02-16T02:56:21;100390.65;;;18.74;19.19
81999;BME280;71598;46.516;-122.928;2024-02-16T02:58:46;100391.70;;;18.72;19.16
81999;BME280;71598;46.516;-122.928;2024-02-16T03:01:12;100395.77;;;18.58;19.17
81999;BME280;71598;46.516;-122.928;2024-02-16T03:03:37;100390.94;;;18.89;19.19
81999;BME280;71598;46.516;-122.928;2024-02-16T03:06:02;100395.59;;;18.82;19.14
81999;BME280;71598;46.516;-122.928;2024-02-16T03:08:27;100393.59;;;18.56;19.28
81999;BME280;71598;46.516;-122.928;2024-02-16T03:10:54;100398.58;;;18.52;19.28
81999;BME280;71598;46.516;-122.928;2024-02-16T03:13:18;100399.17;;;18.78;19.24
81999;BME280;71598;46.516;-122.928;2024-02-16T03:15:43;100401.53;;;18.62;19.27
81999;BME280;71598;46.516;-122.928;2024-02-16T03:18:09;100400.37;;;18.56;19.24
81999;BME280;71598;46.516;-122.928;2024-02-16T03:20:35;100405.17;;;18.70;19.29
81999;BME280;71598;46.516;-122.928;2024-02-16T03:23:00;100409.16;;;18.63;19.21
81999;BME280;71598;46.516;-122.928;2024-02-16T03:25:26;100412.67;;;18.74;19.21
81999;BME280;71598;46.516;-122.928;2024-02-16T03:27:51;100418.53;;;18.61;19.29
81999;BME280;71598;46.516;-122.928;2024-02-16T03:30:17;100422.98;;;18.62;19.25
81999;BME280;71598;46.516;-122.928;2024-02-16T03:32:42;100425.52;;;18.77;19.30
81999;BME280;71598;46.516;-122.928;2024-02-16T03:35:08;100429.38;;;18.37;19.32
81999;BME280;71598;46.516;-122.928;2024-02-16T03:37:33;100432.67;;;18.34;19.36
81999;BME280;71598;46.516;-122.928;2024-02-16T03:39:59;100430.00;;;18.87;19.25
81999;BME280;71598;46.516;-122.928;2024-02-16T03:42:24;100436.67;;;18.54;19.28
81999;BME280;71598;46.516;-122.928;2024-02-16T03:44:50;100442.20;;;18.70;19.29
81999;BME280;71598;46.516;-122.928;2024-02-16T03:47:15;100441.43;;;18.65;19.23
81999;BME280;71598;46.516;-122.928;2024-02-16T03:49:40;100441.89;;;18.67;19.23
81999;BME280;71598;46.516;-122.928;2024-02-16T03:52:05;100450.51;;;18.62;19.19
81999;BME280;71598;46.516;-122.928;2024-02-16T03:54:31;100454.38;;;18.50;19.20
81999;BME280;71598;46.516;-122.928;2024-02-16T03:56:56;100457.43;;;18.69;19.23
81999;BME280;71598;46.516;-122.928;2024-02-16T03:59:22;100464.49;;;18.52;19.15
81999;BME280;71598;46.516;-122.928;2024-02-16T04:01:47;100467.50;;;18.70;19.17
81999;BME280;71598;46.516;-122.928;2024-02-16T04:04:13;100467.29;;;18.58;19.17
81999;BME280;71598;46.516;-122.928;2024-02-16T04:06:38;100474.62;;;18.70;19.19
81999;BME280;71598;46.516;-122.928;2024-02-16T04:09:06;100478.13;;;18.52;19.20
81999;BME280;71598;46.516;-122.928;2024-02-16T04:11:30;100481.31;;;18.65;19.21
81999;BME280;71598;46.516;-122.928;2024-02-16T04:13:54;100482.28;;;18.46;19.20
81999;BME280;71598;46.516;-122.928;2024-02-16T04:16:20;100486.98;;;18.60;19.17
81999;BME280;71598;46.516;-122.928;2024-02-16T04:18:45;100493.07;;;18.73;19.17
81999;BME280;71598;46.516;-122.928;2024-02-16T04:21:11;100501.37;;;18.81;19.13
81999;BME280;71598;46.516;-122.928;2024-02-16T04:23:37;100509.10;;;18.74;19.17
81999;BME280;71598;46.516;-122.928;2024-02-16T04:26:02;100515.35;;;18.72;19.28
81999;BME280;71598;46.516;-122.928;2024-02-16T04:28:27;100517.06;;;18.55;19.22
81999;BME280;71598;46.516;-122.928;2024-02-16T04:30:52;100517.84;;;18.45;19.25
81999;BME280;71598;46.516;-122.928;2024-02-16T04:33:18;100516.96;;;18.44;19.22
81999;BME280;71598;46.516;-122.928;2024-02-16T04:35:44;100521.15;;;18.66;19.25
81999;BME280;71598;46.516;-122.928;2024-02-16T04:38:09;100517.96;;;18.46;19.22
81999;BME280;71598;46.516;-122.928;2024-02-16T04:40:37;100516.67;;;18.64;19.19
81999;BME280;71598;46.516;-122.928;2024-02-16T04:42:59;100515.56;;;18.79;19.10
81999;BME280;71598;46.516;-122.928;2024-02-16T04:45:26;100516.60;;;18.61;19.09
81999;BME280;71598;46.516;-122.928;2024-02-16T04:47:51;100516.82;;;18.82;19.09
81999;BME280;71598;46.516;-122.928;2024-02-16T04:50:16;100518.03;;;18.61;19.15
81999;BME280;71598;46.516;-122.928;2024-02-16T04:52:41;100520.82;;;18.38;19.20
81999;BME280;71598;46.516;-122.928;2024-02-16T04:55:07;100521.72;;;18.48;19.34
81999;BME280;71598;46.516;-122.928;2024-02-16T04:57:32;100521.65;;;18.11;19.49
81999;BME280;71598;46.516;-122.928;2024-02-16T04:59:58;100521.52;;;18.71;19.26
81999;BME280;71598;46.516;-122.928;2024-02-16T05:02:24;100525.47;;;18.45;19.30
81999;BME280;71598;46.516;-122.928;2024-02-16T05:04:50;100525.21;;;18.53;19.16
81999;BME280;71598;46.516;-122.928;2024-02-16T05:07:15;100525.28;;;18.76;19.16
81999;BME280;71598;46.516;-122.928;2024-02-16T05:09:40;100530.68;;;18.50;19.19
81999;BME280;71598;46.516;-122.928;2024-02-16T05:12:07;100534.65;;;18.72;19.14
81999;BME280;71598;46.516;-122.928;2024-02-16T05:14:31;100541.04;;;18.98;19.12
81999;BME280;71598;46.516;-122.928;2024-02-16T05:16:57;100548.71;;;18.66;19.25
81999;BME280;71598;46.516;-122.928;2024-02-16T05:19:22;100550.73;;;18.34;19.24
81999;BME280;71598;46.516;-122.928;2024-02-16T05:21:48;100554.98;;;18.34;19.34
81999;BME280;71598;46.516;-122.928;2024-02-16T05:24:13;100555.43;;;18.34;19.32
81999;BME280;71598;46.516;-122.928;2024-02-16T05:26:39;100557.64;;;18.77;19.20
81999;BME280;71598;46.516;-122.928;2024-02-16T05:29:05;100559.23;;;18.47;19.11
81999;BME280;71598;46.516;-122.928;2024-02-16T05:31:30;100559.84;;;18.60;19.11
81999;BME280;71598;46.516;-122.928;2024-02-16T05:33:55;100564.19;;;18.46;19.01
81999;BME280;71598;46.516;-122.928;2024-02-16T05:36:22;100564.62;;;18.54;19.07
81999;BME280;71598;46.516;-122.928;2024-02-16T05:38:47;100568.92;;;18.37;19.17
81999;BME280;71598;46.516;-122.928;2024-02-16T05:41:13;100573.04;;;18.54;19.15
81999;BME280;71598;46.516;-122.928;2024-02-16T05:43:37;100578.31;;;18.50;19.22
81999;BME280;71598;46.516;-122.928;2024-02-16T05:46:03;100584.51;;;18.43;19.25
81999;BME280;71598;46.516;-122.928;2024-02-16T05:48:29;100588.70;;;18.20;19.20
81999;BME280;71598;46.516;-122.928;2024-02-16T05:50:57;100590.65;;;18.26;19.21
81999;BME280;71598;46.516;-122.928;2024-02-16T05:53:19;100597.34;;;18.55;19.19
81999;BME280;71598;46.516;-122.928;2024-02-16T05:55:45;100599.34;;;18.36;19.19
81999;BME280;71598;46.516;-122.928;2024-02-16T05:58:10;100604.26;;;18.45;19.26
81999;BME280;71598;46.516;-122.928;2024-02-16T06:00:36;100610.29;;;18.76;19.20
81999;BME280;71598;46.516;-122.928;2024-02-16T06:03:01;100616.69;;;18.83;19.15
81999;BME280;71598;46.516;-122.928;2024-02-16T06:05:27;100617.60;;;18.53;19.13
81999;BME280;71598;46.516;-122.928;2024-02-16T06:07:53;100616.74;;;18.63;19.14
81999;BME280;71598;46.516;-122.928;2024-02-16T06:10:18;100618.74;;;18.28;19.14
81999;BME280;71598;46.516;-122.928;2024-02-16T06:12:45;100616.12;;;18.79;19.28
81999;BME280;71598;46.516;-122.928;2024-02-16T06:15:10;100613.10;;;18.51;19.24
81999;BME280;71598;46.516;-122.928;2024-02-16T06:17:36;100610.26;;;18.70;19.18
81999;BME280;71598;46.516;-122.928;2024-02-16T06:20:01;100610.07;;;18.26;19.23
81999;BME280;71598;46.516;-122.928;2024-02-16T06:22:27;100606.95;;;18.52;19.22
81999;BME280;71598;46.516;-122.928;2024-02-16T06:24:52;100606.90;;;18.65;19.20
81999;BME280;71598;46.516;-122.928;2024-02-16T06:27:18;100609.29;;;18.68;19.23
81999;BME280;71598;46.516;-122.928;2024-02-16T06:29:43;100609.48;;;18.36;19.20
81999;BME280;71598;46.516;-122.928;2024-02-16T06:32:08;100611.18;;;18.67;19.24
81999;BME280;71598;46.516;-122.928;2024-02-16T06:34:33;100615.94;;;18.54;19.26
81999;BME280;71598;46.516;-122.928;2024-02-16T06:36:59;100617.10;;;18.27;19.26
81999;BME280;71598;46.516;-122.928;2024-02-16T06:39:24;100622.99;;;18.30;19.29
81999;BME280;71598;46.516;-122.928;2024-02-16T06:41:49;100628.82;;;18.62;19.26
81999;BME280;71598;46.516;-122.928;2024-02-16T06:44:16;100631.65;;;18.43;19.30
81999;BME280;71598;46.516;-122.928;2024-02-16T06:46:41;100633.55;;;18.59;19.26
81999;BME280;71598;46.516;-122.928;2024-02-16T06:49:07;100633.24;;;18.57;19.32
81999;BME280;71598;46.516;-122.928;2024-02-16T06:51:33;100634.79;;;18.56;19.26
81999;BME280;71598;46.516;-122.928;2024-02-16T06:53:58;100636.99;;;18.07;19.22
81999;BME280;71598;46.516;-122.928;2024-02-16T06:56:24;100642.73;;;18.19;19.20
81999;BME280;71598;46.516;-122.928;2024-02-16T06:58:49;100646.79;;;18.57;19.16
81999;BME280;71598;46.516;-122.928;2024-02-16T07:01:15;100654.58;;;18.71;19.23
81999;BME280;71598;46.516;-122.928;2024-02-16T07:03:39;100662.04;;;18.39;19.25
81999;BME280;71598;46.516;-122.928;2024-02-16T07:06:05;100669.73;;;18.10;19.29
81999;BME280;71598;46.516;-122.928;2024-02-16T07:08:30;100671.21;;;18.22;19.29
81999;BME280;71598;46.516;-122.928;2024-02-16T07:10:56;100668.45;;;18.14;19.33
81999;BME280;71598;46.516;-122.928;2024-02-16T07:13:23;100667.55;;;18.58;19.28
81999;BME280;71598;46.516;-122.928;2024-02-16T07:15:46;100670.20;;;18.38;19.30
81999;BME280;71598;46.516;-122.928;2024-02-16T07:18:12;100671.54;;;18.58;19.33
81999;BME280;71598;46.516;-122.928;2024-02-16T07:20:36;100675.56;;;18.31;19.28
81999;BME280;71598;46.516;-122.928;2024-02-16T07:23:02;100677.81;;;18.58;19.20
81999;BME280;71598;46.516;-122.928;2024-02-16T07:25:27;100684.22;;;18.06;19.26
81999;BME280;71598;46.516;-122.928;2024-02-16T07:27:52;100685.21;;;18.29;19.27
81999;BME280;71598;46.516;-122.928;2024-02-16T07:30:18;100685.69;;;18.45;19.31
81999;BME280;71598;46.516;-122.928;2024-02-16T07:32:43;100688.98;;;18.50;19.20
81999;BME280;71598;46.516;-122.928;2024-02-16T07:35:09;100689.08;;;18.44;19.29
81999;BME280;71598;46.516;-122.928;2024-02-16T07:37:34;100687.92;;;18.37;19.28
81999;BME280;71598;46.516;-122.928;2024-02-16T07:40:00;100691.97;;;18.19;19.32
81999;BME280;71598;46.516;-122.928;2024-02-16T07:42:26;100694.90;;;18.36;19.19
81999;BME280;71598;46.516;-122.928;2024-02-16T07:44:53;100695.05;;;18.18;19.31
81999;BME280;71598;46.516;-122.928;2024-02-16T07:47:17;100698.58;;;18.59;19.35
81999;BME280;71598;46.516;-122.928;2024-02-16T07:49:42;100700.20;;;18.15;19.39
81999;BME280;71598;46.516;-122.928;2024-02-16T07:52:09;100706.11;;;18.36;19.36
81999;BME280;71598;46.516;-122.928;2024-02-16T07:54:33;100706.73;;;18.48;19.34
81999;BME280;71598;46.516;-122.928;2024-02-16T07:56:58;100706.17;;;18.51;19.40
81999;BME280;71598;46.516;-122.928;2024-02-16T07:59:24;100710.15;;;18.08;19.42
81999;BME280;71598;46.516;-122.928;2024-02-16T08:01:49;100710.63;;;18.28;19.41
81999;BME280;71598;46.516;-122.928;2024-02-16T08:04:14;100710.61;;;18.38;19.36
81999;BME280;71598;46.516;-122.928;2024-02-16T08:06:40;100710.43;;;17.97;19.36
81999;BME280;71598;46.516;-122.928;2024-02-16T08:09:05;100705.04;;;18.39;19.40
81999;BME280;71598;46.516;-122.928;2024-02-16T08:11:31;100703.12;;;18.17;19.37
81999;BME280;71598;46.516;-122.928;2024-02-16T08:13:57;100701.62;;;18.43;19.47
81999;BME280;71598;46.516;-122.928;2024-02-16T08:16:22;100700.32;;;18.23;19.47
81999;BME280;71598;46.516;-122.928;2024-02-16T08:18:47;100702.96;;;18.52;19.36
81999;BME280;71598;46.516;-122.928;2024-02-16T08:21:13;100703.06;;;18.38;19.30
81999;BME280;71598;46.516;-122.928;2024-02-16T08:23:38;100701.09;;;18.60;19.30
81999;BME280;71598;46.516;-122.928;2024-02-16T08:26:04;100702.78;;;18.29;19.34
81999;BME280;71598;46.516;-122.928;2024-02-16T08:28:30;100705.89;;;18.33;19.28
81999;BME280;71598;46.516;-122.928;2024-02-16T08:30:56;100711.86;;;18.33;19.47
81999;BME280;71598;46.516;-122.928;2024-02-16T08:33:21;100716.16;;;18.23;19.40
81999;BME280;71598;46.516;-122.928;2024-02-16T08:35:46;100719.04;;;18.00;19.47
81999;BME280;71598;46.516;-122.928;2024-02-16T08:38:11;100716.84;;;18.12;19.48
81999;BME280;71598;46.516;-122.928;2024-02-16T08:40:37;100719.95;;;18.10;19.43
81999;BME280;71598;46.516;-122.928;2024-02-16T08:43:02;100724.30;;;18.15;19.45
81999;BME280;71598;46.516;-122.928;2024-02-16T08:45:28;100727.20;;;18.13;19.53
81999;BME280;71598;46.516;-122.928;2024-02-16T08:47:53;100729.70;;;18.23;19.48
81999;BME280;71598;46.516;-122.928;2024-02-16T08:50:21;100729.81;;;18.27;19.43
81999;BME280;71598;46.516;-122.928;2024-02-16T08:52:45;100727.21;;;18.27;19.44
81999;BME280;71598;46.516;-122.928;2024-02-16T08:55:10;100727.45;;;18.28;19.42
81999;BME280;71598;46.516;-122.928;2024-02-16T08:57:35;100732.26;;;17.89;19.36
81999;BME280;71598;46.516;-122.928;2024-02-16T09:00:01;100734.61;;;18.35;19.34
81999;BME280;71598;46.516;-122.928;2024-02-16T09:02:27;100733.72;;;18.14;19.42
81999;BME280;71598;46.516;-122.928;2024-02-16T09:04:52;100733.02;;;18.07;19.42
81999;BME280;71598;46.516;-122.928;2024-02-16T09:07:17;100741.34;;;18.08;19.51
81999;BME280;71598;46.516;-122.928;2024-02-16T09:09:43;100746.80;;;18.22;19.37
81999;BME280;71598;46.516;-122.928;2024-02-16T09:12:08;100755.96;;;17.91;19.50
81999;BME280;71598;46.516;-122.928;2024-02-16T09:14:34;100762.59;;;17.95;19.44
81999;BME280;71598;46.516;-122.928;2024-02-16T09:16:59;100763.30;;;18.13;19.37
81999;BME280;71598;46.516;-122.928;2024-02-16T09:19:24;100764.68;;;18.19;19.36
81999;BME280;71598;46.516;-122.928;2024-02-16T09:21:50;100767.22;;;18.12;19.41
81999;BME280;71598;46.516;-122.928;2024-02-16T09:24:15;100767.32;;;18.00;19.41
81999;BME280;71598;46.516;-122.928;2024-02-16T09:26:41;100767.67;;;18.59;19.21
81999;BME280;71598;46.516;-122.928;2024-02-16T09:29:07;100769.91;;;18.70;19.35
81999;BME280;71598;46.516;-122.928;2024-02-16T09:31:32;100774.00;;;18.74;19.38
81999;BME280;71598;46.516;-122.928;2024-02-16T09:33:57;100782.01;;;18.36;19.57
81999;BME280;71598;46.516;-122.928;2024-02-16T09:36:22;100782.43;;;18.73;19.48
81999;BME280;71598;46.516;-122.928;2024-02-16T09:38:48;100782.44;;;18.88;19.42
81999;BME280;71598;46.516;-122.928;2024-02-16T09:41:14;100783.43;;;19.35;19.25
81999;BME280;71598;46.516;-122.928;2024-02-16T09:43:39;100781.21;;;19.21;19.13
81999;BME280;71598;46.516;-122.928;2024-02-16T09:46:04;100786.47;;;18.68;19.22
81999;BME280;71598;46.516;-122.928;2024-02-16T09:48:30;100789.69;;;18.68;19.30
81999;BME280;71598;46.516;-122.928;2024-02-16T09:50:56;100792.42;;;18.63;19.36
81999;BME280;71598;46.516;-122.928;2024-02-16T09:53:24;100796.51;;;18.51;19.31
81999;BME280;71598;46.516;-122.928;2024-02-16T09:55:47;100800.45;;;18.73;19.25
81999;BME280;71598;46.516;-122.928;2024-02-16T09:58:12;100801.07;;;18.28;19.37
81999;BME280;71598;46.516;-122.928;2024-02-16T10:00:37;100803.64;;;18.86;19.33
81999;BME280;71598;46.516;-122.928;2024-02-16T10:03:03;100809.62;;;18.57;19.35
81999;BME280;71598;46.516;-122.928;2024-02-16T10:05:29;100809.26;;;18.45;19.35
81999;BME280;71598;46.516;-122.928;2024-02-16T10:07:55;100813.53;;;18.42;19.29
81999;BME280;71598;46.516;-122.928;2024-02-16T10:10:22;100820.30;;;18.33;19.32
81999;BME280;71598;46.516;-122.928;2024-02-16T10:12:46;100825.30;;;18.79;19.25
81999;BME280;71598;46.516;-122.928;2024-02-16T10:15:18;100827.77;;;18.75;19.24
81999;BME280;71598;46.516;-122.928;2024-02-16T10:17:37;100829.25;;;18.25;19.22
81999;BME280;71598;46.516;-122.928;2024-02-16T10:20:02;100826.97;;;18.33;19.27
81999;BME280;71598;46.516;-122.928;2024-02-16T10:22:27;100827.68;;;18.52;19.24
81999;BME280;71598;46.516;-122.928;2024-02-16T10:24:52;100830.43;;;18.19;19.25
81999;BME280;71598;46.516;-122.928;2024-02-16T10:27:18;100830.79;;;18.40;19.14
81999;BME280;71598;46.516;-122.928;2024-02-16T10:29:44;100831.39;;;18.42;19.21
81999;BME280;71598;46.516;-122.928;2024-02-16T10:32:08;100830.25;;;18.35;19.23
81999;BME280;71598;46.516;-122.928;2024-02-16T10:34:34;100833.94;;;18.35;19.27
81999;BME280;71598;46.516;-122.928;2024-02-16T10:37:00;100834.98;;;18.32;19.14
81999;BME280;71598;46.516;-122.928;2024-02-16T10:39:24;100835.83;;;18.29;19.14
81999;BME280;71598;46.516;-122.928;2024-02-16T10:41:50;100833.16;;;18.50;19.09
81999;BME280;71598;46.516;-122.928;2024-02-16T10:44:15;100833.06;;;18.51;19.13
81999;BME280;71598;46.516;-122.928;2024-02-16T10:46:41;100834.32;;;17.93;19.25
81999;BME280;71598;46.516;-122.928;2024-02-16T10:49:06;100833.12;;;18.10;19.25
81999;BME280;71598;46.516;-122.928;2024-02-16T10:51:35;100833.95;;;18.34;19.18
81999;BME280;71598;46.516;-122.928;2024-02-16T10:54:00;100828.07;;;18.18;19.29
81999;BME280;71598;46.516;-122.928;2024-02-16T10:56:41;100824.77;;;18.31;19.33
81999;BME280;71598;46.516;-122.928;2024-02-16T10:58:49;100825.49;;;17.93;19.30
81999;BME280;71598;46.516;-122.928;2024-02-16T11:01:16;100825.01;;;18.17;19.24
81999;BME280;71598;46.516;-122.928;2024-02-16T11:03:39;100825.04;;;17.94;19.16
81999;BME280;71598;46.516;-122.928;2024-02-16T11:06:14;100824.88;;;18.22;19.18
81999;BME280;71598;46.516;-122.928;2024-02-16T11:08:29;100822.53;;;18.19;19.14
81999;BME280;71598;46.516;-122.928;2024-02-16T11:10:56;100821.20;;;17.96;19.13
81999;BME280;71598;46.516;-122.928;2024-02-16T11:13:23;100817.59;;;17.81;19.26
81999;BME280;71598;46.516;-122.928;2024-02-16T11:15:57;100822.24;;;18.01;19.17
81999;BME280;71598;46.516;-122.928;2024-02-16T11:18:12;100814.96;;;18.03;19.24
81999;BME280;71598;46.516;-122.928;2024-02-16T11:20:38;100812.33;;;17.77;19.24
81999;BME280;71598;46.516;-122.928;2024-02-16T11:23:08;100814.65;;;17.93;19.14
81999;BME280;71598;46.516;-122.928;2024-02-16T11:25:34;100817.42;;;18.17;18.92
81999;BME280;71598;46.516;-122.928;2024-02-16T11:27:54;100823.28;;;18.38;18.93
81999;BME280;71598;46.516;-122.928;2024-02-16T11:30:20;100832.27;;;18.22;19.01
81999;BME280;71598;46.516;-122.928;2024-02-16T11:32:47;100835.21;;;18.18;19.06
81999;BME280;71598;46.516;-122.928;2024-02-16T11:35:11;100838.59;;;17.86;19.16
81999;BME280;71598;46.516;-122.928;2024-02-16T11:37:36;100834.38;;;18.01;19.05
81999;BME280;71598;46.516;-122.928;2024-02-16T11:40:01;100830.17;;;17.62;19.29
81999;BME280;71598;46.516;-122.928;2024-02-16T11:42:26;100837.34;;;17.60;19.30
81999;BME280;71598;46.516;-122.928;2024-02-16T11:44:53;100842.61;;;17.57;19.16
81999;BME280;71598;46.516;-122.928;2024-02-16T11:47:21;100842.50;;;17.82;19.09
81999;BME280;71598;46.516;-122.928;2024-02-16T11:49:43;100842.05;;;18.09;19.03
81999;BME280;71598;46.516;-122.928;2024-02-16T11:52:08;100850.67;;;17.92;18.94
81999;BME280;71598;46.516;-122.928;2024-02-16T11:54:33;100855.11;;;17.92;19.04
81999;BME280;71598;46.516;-122.928;2024-02-16T11:56:59;100855.08;;;17.76;19.08
81999;BME280;71598;46.516;-122.928;2024-02-16T11:59:24;100860.82;;;17.57;19.21
81999;BME280;71598;46.516;-122.928;2024-02-16T12:01:51;100864.94;;;17.21;19.39
81999;BME280;71598;46.516;-122.928;2024-02-16T12:04:21;100855.78;;;17.67;19.22
81999;BME280;71598;46.516;-122.928;2024-02-16T12:06:41;100851.12;;;17.85;19.10
81999;BME280;71598;46.516;-122.928;2024-02-16T12:09:06;100843.31;;;17.85;19.00
81999;BME280;71598;46.516;-122.928;2024-02-16T12:11:32;100845.29;;;17.67;19.06